Time;durP1;ratioP1;P1;durP2;ratioP2;P2;SDS_P1;SDS_P2;PMS_P1;PMS_P2;Temp;Humidity;BMP_temperature;BMP_pressure;BME280_temperature;BME280_humidity;BME280_pressure;Samples;Min_cycle;Max_cycle;Signal;HPM_P1;HPM_P2
2023/06/04 00:02:26;;;;;;;3.20;1.63;;;;;;;19.41;35.87;99985.31;4939333;28;20050;-87
2023/06/04 00:04:53;;;;;;;1.33;1.15;;;;;;;19.36;36.15;99987.72;4937241;28;20502;-86
2023/06/04 00:07:20;;;;;;;2.72;1.02;;;;;;;19.40;36.18;99980.09;4926387;28;20046;-87
2023/06/04 00:09:47;;;;;;;5.53;1.38;;;;;;;19.34;36.13;99980.88;4917438;28;20053;-87
2023/06/04 00:12:15;;;;;;;3.38;1.30;;;;;;;19.40;36.09;99972.84;4942730;28;20051;-88
2023/06/04 00:14:51;;;;;;;6.25;1.52;;;;;;;19.40;35.88;99980.91;4954579;28;20149;-87
2023/06/04 00:17:18;;;;;;;3.45;1.50;;;;;;;19.36;35.70;99989.56;4969485;28;20066;-87
2023/06/04 00:19:45;;;;;;;6.68;1.27;;;;;;;19.38;35.70;99987.53;4954478;28;20409;-88
2023/06/04 00:22:12;;;;;;;2.85;1.25;;;;;;;19.25;35.97;99972.88;4987163;28;20042;-86
2023/06/04 00:24:40;;;;;;;2.95;1.40;;;;;;;19.29;35.86;99976.03;4963090;28;20491;-87
2023/06/04 00:27:08;;;;;;;2.42;1.80;;;;;;;19.33;36.01;99987.25;4926517;28;20147;-88
2023/06/04 00:29:35;;;;;;;4.88;1.52;;;;;;;19.16;36.18;99984.78;4920039;28;20066;-87
2023/06/04 00:32:03;;;;;;;5.07;2.10;;;;;;;19.12;35.79;99975.41;4909145;28;20047;-87
2023/06/04 00:34:30;;;;;;;5.25;1.50;;;;;;;19.08;35.90;99979.50;4942471;28;20094;-87
2023/06/04 00:36:57;;;;;;;3.15;1.25;;;;;;;19.15;35.79;99987.66;4925598;28;20402;-87
2023/06/04 00:39:24;;;;;;;2.55;1.30;;;;;;;19.16;35.99;99979.41;4937516;28;20093;-87
2023/06/04 00:41:51;;;;;;;1.98;1.30;;;;;;;19.07;35.81;99991.28;4937566;28;20465;-86
2023/06/04 00:44:18;;;;;;;2.95;1.42;;;;;;;19.04;36.07;99984.41;4942547;28;20152;-86
2023/06/04 00:46:49;;;;;;;2.28;1.15;;;;;;;19.05;35.95;99983.38;4961360;28;20074;-87
2023/06/04 00:49:21;;;;;;;5.75;1.58;;;;;;;19.13;35.96;99990.53;4915194;28;20047;-88
2023/06/04 00:51:49;;;;;;;2.28;1.10;;;;;;;19.03;35.87;99984.59;4938242;28;20121;-87
2023/06/04 00:54:17;;;;;;;4.30;1.70;;;;;;;19.07;35.90;99992.13;4934570;28;20047;-87
2023/06/04 00:56:44;;;;;;;1.45;1.23;;;;;;;19.05;35.93;99996.00;4914442;28;20101;-87
2023/06/04 00:59:11;;;;;;;2.88;1.40;;;;;;;18.96;36.09;99997.16;4934122;28;20051;-86
2023/06/04 01:02:02;;;;;;;3.42;1.30;;;;;;;18.89;35.79;100002.44;4918935;28;20130;-88
2023/06/04 01:04:44;;;;;;;3.25;1.25;;;;;;;18.91;35.83;99997.72;4953320;28;20050;-87
2023/06/04 01:07:13;;;;;;;4.03;1.30;;;;;;;18.74;36.40;100001.56;4949412;28;20493;-87
2023/06/04 01:09:40;;;;;;;1.73;1.17;;;;;;;18.78;36.03;100000.22;4955605;28;20058;-87
2023/06/04 01:12:08;;;;;;;1.27;1.17;;;;;;;18.48;36.26;100002.00;4986024;28;20542;-87
2023/06/04 01:14:36;;;;;;;2.38;1.23;;;;;;;18.62;36.41;100007.41;4944766;28;20054;-88
2023/06/04 01:17:36;;;;;;;1.92;1.30;;;;;;;18.57;36.28;100008.94;4954707;28;20081;-87
2023/06/04 01:20:32;;;;;;;3.00;1.25;;;;;;;18.58;36.28;100007.94;4961080;28;20055;-87
2023/06/04 01:23:13;;;;;;;3.65;2.30;;;;;;;18.58;36.00;100002.56;4957469;28;20057;-88
2023/06/04 01:25:43;;;;;;;2.33;1.10;;;;;;;18.68;36.07;100010.38;4964195;28;20046;-88
2023/06/04 01:28:13;;;;;;;1.48;1.15;;;;;;;18.68;36.08;100010.38;4946389;28;20109;-87
2023/06/04 01:30:45;;;;;;;2.63;1.38;;;;;;;18.68;36.04;100005.00;4915250;28;20149;-87
2023/06/04 01:33:15;;;;;;;3.65;1.50;;;;;;;18.77;36.13;99993.97;4938688;28;20059;-86
2023/06/04 01:35:45;;;;;;;3.03;1.25;;;;;;;18.77;35.97;100002.03;4935255;28;20101;-87
2023/06/04 01:38:18;;;;;;;4.82;1.30;;;;;;;18.76;35.90;100007.63;4918851;28;20454;-86
2023/06/04 01:40:47;;;;;;;3.28;1.30;;;;;;;18.79;36.06;100000.00;4928761;28;20142;-87
2023/06/04 01:43:14;;;;;;;1.70;1.10;;;;;;;18.70;36.08;100009.19;4901795;28;20401;-86
2023/06/04 01:45:41;;;;;;;5.80;1.77;;;;;;;18.69;35.94;100004.81;4933432;28;20052;-86
2023/06/04 01:48:08;;;;;;;3.25;1.20;;;;;;;18.63;36.03;100009.06;4920910;28;20101;-87
2023/06/04 01:50:36;;;;;;;1.95;1.17;;;;;;;18.66;35.90;100005.19;4947907;28;20290;-87
2023/06/04 01:53:06;;;;;;;1.60;1.25;;;;;;;18.65;35.84;100011.59;4931084;28;20493;-87
2023/06/04 01:55:34;;;;;;;1.35;1.05;;;;;;;18.69;35.83;100010.19;4927686;28;20098;-86
2023/06/04 01:58:01;;;;;;;1.67;1.15;;;;;;;18.57;35.91;100000.88;4951178;28;20137;-87
2023/06/04 02:00:29;;;;;;;3.85;1.02;;;;;;;18.53;35.99;100003.13;4916511;28;20505;-86
2023/06/04 02:02:56;;;;;;;4.53;1.10;;;;;;;18.57;35.78;100004.44;4930993;28;20516;-87
2023/06/04 02:05:24;;;;;;;2.00;1.10;;;;;;;18.53;35.93;100002.28;4969558;28;20077;-86
2023/06/04 02:07:51;;;;;;;3.08;1.05;;;;;;;18.56;35.94;100005.44;4942507;28;20067;-87
2023/06/04 02:10:19;;;;;;;1.98;1.15;;;;;;;18.51;35.82;99998.94;4916186;28;20438;-87
2023/06/04 02:13:00;;;;;;;3.10;1.20;;;;;;;18.51;35.59;99990.88;4938166;28;20051;-86
2023/06/04 02:15:30;;;;;;;1.20;1.00;;;;;;;18.59;35.92;100002.38;4908610;28;20505;-86
2023/06/04 02:18:01;;;;;;;3.63;1.20;;;;;;;18.61;35.95;100004.91;4953860;28;20728;-88
2023/06/04 02:20:29;;;;;;;2.80;1.17;;;;;;;18.63;36.08;100005.56;4943446;28;20147;-86
2023/06/04 02:22:56;;;;;;;3.65;1.20;;;;;;;18.63;36.13;100002.88;4953177;28;20050;-86
2023/06/04 02:25:26;;;;;;;2.70;1.23;;;;;;;18.63;35.84;99994.78;4955032;28;20284;-87
2023/06/04 02:27:59;;;;;;;1.63;1.05;;;;;;;18.63;35.75;100002.88;4925123;28;20087;-87
2023/06/04 02:30:26;;;;;;;1.50;1.38;;;;;;;18.58;35.84;100010.66;4925777;28;20401;-87
2023/06/04 02:32:54;;;;;;;2.00;0.98;;;;;;;18.62;35.99;100009.25;4918856;28;20569;-87
2023/06/04 02:35:24;;;;;;;1.80;1.15;;;;;;;18.64;35.43;100026.03;4931554;28;20047;-87
2023/06/04 02:37:51;;;;;;;2.33;1.20;;;;;;;18.53;36.03;100010.34;4933876;28;20562;-87
2023/06/04 02:40:18;;;;;;;2.33;1.15;;;;;;;18.56;35.79;100012.69;4934521;28;20051;-86
2023/06/04 02:42:45;;;;;;;1.88;1.20;;;;;;;18.51;35.74;100009.69;4947721;28;20140;-86
2023/06/04 02:45:12;;;;;;;1.55;1.20;;;;;;;18.55;35.73;100005.63;4971656;28;20046;-87
2023/06/04 02:47:39;;;;;;;2.53;0.90;;;;;;;18.51;35.77;100002.47;4942511;28;20047;-86
2023/06/04 02:50:07;;;;;;;2.83;1.58;;;;;;;18.58;35.70;100010.66;4901302;28;20126;-87
2023/06/04 02:52:36;;;;;;;4.25;1.58;;;;;;;18.59;36.04;100007.75;4931309;28;20055;-87
2023/06/04 02:55:06;;;;;;;2.92;1.10;;;;;;;18.58;35.72;100002.56;4908955;28;20405;-88
2023/06/04 02:57:33;;;;;;;2.70;1.88;;;;;;;18.54;35.71;100006.63;4938580;28;20120;-86
2023/06/04 03:00:07;;;;;;;2.42;1.02;;;;;;;18.56;35.92;100001.91;4950509;28;20060;-87
2023/06/04 03:02:35;;;;;;;2.58;1.20;;;;;;;18.54;35.55;100004.78;4929505;28;20055;-86
2023/06/04 03:05:04;;;;;;;3.67;1.30;;;;;;;18.50;35.60;100006.19;4948996;28;20382;-87
2023/06/04 03:07:31;;;;;;;1.85;1.15;;;;;;;18.47;35.48;100017.31;4964026;28;20405;-86
2023/06/04 03:09:58;;;;;;;4.18;1.40;;;;;;;18.41;35.80;100005.41;4915071;28;20157;-86
2023/06/04 03:12:28;;;;;;;2.80;1.10;;;;;;;18.46;35.86;100012.94;4910508;28;20047;-87
2023/06/04 03:14:56;;;;;;;4.03;1.30;;;;;;;18.44;35.51;100012.28;4942309;28;20067;-88
2023/06/04 03:17:23;;;;;;;1.13;1.00;;;;;;;18.42;35.78;100009.78;4921945;28;20225;-87
2023/06/04 03:19:50;;;;;;;1.77;1.08;;;;;;;18.44;35.65;100013.13;4955161;28;20058;-87
2023/06/04 03:22:17;;;;;;;3.90;1.45;;;;;;;18.48;35.61;100013.59;4930209;28;20074;-87
2023/06/04 03:24:44;;;;;;;2.20;1.05;;;;;;;18.48;35.65;100010.06;4924495;28;20145;-87
2023/06/04 03:27:11;;;;;;;3.65;1.25;;;;;;;18.46;35.71;100014.78;4937685;28;20577;-88
2023/06/04 03:29:40;;;;;;;1.75;0.90;;;;;;;18.43;35.88;100022.19;4944075;28;20053;-87
2023/06/04 03:32:09;;;;;;;2.58;0.90;;;;;;;18.38;35.66;100016.53;4918632;28;20072;-87
2023/06/04 03:34:37;;;;;;;4.38;1.48;;;;;;;18.39;35.68;100018.22;4952343;28;20343;-87
2023/06/04 03:37:04;;;;;;;1.20;1.10;;;;;;;18.42;35.81;100019.72;4925450;28;20143;-86
2023/06/04 03:39:32;;;;;;;1.45;0.82;;;;;;;18.41;36.78;100021.53;4928512;28;20057;-87
2023/06/04 03:42:03;;;;;;;3.33;1.30;;;;;;;18.39;35.90;100023.59;4954656;28;20059;-88
2023/06/04 03:44:30;;;;;;;1.50;1.20;;;;;;;18.39;35.71;100020.91;4945934;28;20054;-86
2023/06/04 03:46:57;;;;;;;3.13;1.30;;;;;;;18.48;35.81;100020.81;4916734;28;20043;-87
2023/06/04 03:49:25;;;;;;;2.53;1.15;;;;;;;18.58;35.99;100022.22;4905506;28;20078;-87
2023/06/04 03:51:52;;;;;;;1.80;1.00;;;;;;;18.79;36.38;100016.16;4955578;28;20051;-87
2023/06/04 03:54:21;;;;;;;1.77;1.15;;;;;;;19.23;36.09;100027.94;4937332;28;20417;-86
2023/06/04 03:56:52;;;;;;;1.60;1.25;;;;;;;19.80;35.91;100023.69;4959739;28;20073;-87
2023/06/04 03:59:19;;;;;;;4.68;1.52;;;;;;;20.47;34.60;100023.25;4953098;28;20050;-87
2023/06/04 04:01:46;;;;;;;10.85;1.70;;;;;;;21.05;33.28;100020.34;4943572;28;20054;-88
2023/06/04 04:04:14;;;;;;;4.53;1.45;;;;;;;21.67;32.14;100032.88;4937832;28;20047;-86
2023/06/04 04:06:44;;;;;;;3.03;1.77;;;;;;;21.91;31.09;100036.06;4914015;28;20400;-86
2023/06/04 04:09:12;;;;;;;2.95;1.25;;;;;;;21.90;30.53;100031.69;4920475;28;20054;-88
2023/06/04 04:11:39;;;;;;;2.33;1.33;;;;;;;21.66;31.07;100027.69;4919898;28;20130;-87
2023/06/04 04:14:06;;;;;;;2.05;1.33;;;;;;;21.07;31.05;100023.69;4911952;28;20051;-87
2023/06/04 04:16:33;;;;;;;4.07;1.35;;;;;;;20.91;31.67;100034.78;4917573;28;20074;-88
2023/06/04 04:19:01;;;;;;;3.08;1.40;;;;;;;20.78;31.89;100032.84;4921128;28;20418;-86
2023/06/04 04:21:28;;;;;;;3.47;1.30;;;;;;;20.64;31.97;100036.50;4909764;28;20074;-88
2023/06/04 04:23:55;;;;;;;2.13;1.25;;;;;;;20.54;32.04;100037.66;4910999;28;20050;-87
2023/06/04 04:26:26;;;;;;;2.80;1.42;;;;;;;20.40;32.09;100038.53;4955711;28;20053;-88
2023/06/04 04:28:57;;;;;;;5.35;1.60;;;;;;;20.25;32.29;100030.56;4960451;28;20051;-89
2023/06/04 04:31:30;;;;;;;2.45;1.40;;;;;;;20.24;32.58;100042.34;4926272;28;20050;-87
2023/06/04 04:34:01;;;;;;;2.70;1.30;;;;;;;20.18;32.74;100037.75;4942939;28;20052;-86
2023/06/04 04:36:28;;;;;;;3.75;1.10;;;;;;;20.17;32.77;100039.59;4948171;28;20054;-87
2023/06/04 04:38:59;;;;;;;2.95;1.73;;;;;;;20.12;32.81;100041.19;4943265;28;20505;-87
2023/06/04 04:41:32;;;;;;;2.50;1.15;;;;;;;19.98;32.87;100051.03;4959239;28;20073;-87
2023/06/04 04:44:05;;;;;;;1.95;1.50;;;;;;;19.90;33.01;100056.53;4942899;28;20050;-87
2023/06/04 04:46:36;;;;;;;6.70;1.55;;;;;;;19.87;33.02;100052.38;4921770;28;20576;-87
2023/06/04 04:49:12;;;;;;;2.47;1.40;;;;;;;19.71;32.51;100050.72;4920339;28;20051;-87
2023/06/04 04:51:40;;;;;;;3.08;1.25;;;;;;;19.68;33.05;100051.09;4920903;28;20597;-87
2023/06/04 04:54:07;;;;;;;2.15;1.40;;;;;;;19.55;33.40;100050.09;4926492;28;20402;-87
2023/06/04 04:56:35;;;;;;;0.93;0.90;;;;;;;19.61;33.66;100050.16;4952031;28;20081;-87
2023/06/04 04:59:03;;;;;;;1.58;1.30;;;;;;;19.51;33.54;100050.47;4969922;28;20501;-87
2023/06/04 05:01:30;;;;;;;3.15;1.73;;;;;;;19.46;33.66;100050.19;4943925;28;20073;-88
2023/06/04 05:03:59;;;;;;;2.45;1.27;;;;;;;19.38;33.92;100047.59;4923613;28;20138;-88
2023/06/04 05:06:31;;;;;;;1.48;1.00;;;;;;;19.36;33.88;100057.75;4910026;28;20419;-87
2023/06/04 05:08:59;;;;;;;3.72;1.50;;;;;;;19.34;33.74;100059.78;4918865;28;20304;-87
2023/06/04 05:11:26;;;;;;;2.53;1.02;;;;;;;19.33;34.25;100065.34;4919798;28;20042;-87
2023/06/04 05:13:58;;;;;;;1.67;0.90;;;;;;;19.33;33.84;100073.41;4953453;28;20051;-87
2023/06/04 05:16:27;;;;;;;1.80;1.10;;;;;;;19.23;34.25;100068.31;4942059;28;20070;-89
2023/06/04 05:18:56;;;;;;;2.47;1.30;;;;;;;19.25;35.06;100068.97;4934202;28;20066;-87
2023/06/04 05:21:28;;;;;;;1.92;1.10;;;;;;;19.26;35.40;100062.59;4927298;28;20051;-88
2023/06/04 05:24:00;;;;;;;2.38;1.02;;;;;;;19.34;35.08;100070.56;4954054;28;20070;-87
2023/06/04 05:26:33;;;;;;;1.50;1.30;;;;;;;19.34;35.20;100075.09;4921221;28;20057;-88
2023/06/04 05:29:10;;;;;;;2.90;1.38;;;;;;;19.38;35.50;100081.78;4926981;28;20447;-88
2023/06/04 05:31:41;;;;;;;2.35;1.52;;;;;;;19.37;35.36;100083.63;4932336;28;20046;-88
2023/06/04 05:34:16;;;;;;;4.07;1.20;;;;;;;19.38;35.79;100084.47;4921521;28;20526;-87
2023/06/04 05:36:44;;;;;;;1.73;1.20;;;;;;;19.39;35.52;100084.28;4898065;28;20696;-88
2023/06/04 05:39:11;;;;;;;4.50;2.03;;;;;;;19.38;34.90;100090.69;4941311;28;20462;-88
2023/06/04 05:42:03;;;;;;;1.23;1.10;;;;;;;19.36;35.12;100091.88;4923061;28;20583;-87
2023/06/04 05:44:35;;;;;;;1.55;1.20;;;;;;;19.38;35.26;100098.75;4925066;28;20046;-88
2023/06/04 05:47:06;;;;;;;6.53;1.10;;;;;;;19.44;35.18;100094.50;4912500;28;20051;-89
2023/06/04 05:49:34;;;;;;;2.78;1.20;;;;;;;19.38;34.90;100090.69;4942475;28;20054;-88
2023/06/04 05:52:02;;;;;;;2.17;1.20;;;;;;;19.45;34.54;100096.16;4927994;28;20121;-87
2023/06/04 05:54:30;;;;;;;3.70;1.20;;;;;;;19.51;34.84;100100.78;4927323;28;20466;-89
2023/06/04 05:56:57;;;;;;;2.00;1.35;;;;;;;19.40;34.68;100099.41;4933492;28;20506;-87
2023/06/04 05:59:24;;;;;;;2.00;1.23;;;;;;;19.41;34.65;100100.25;4925023;28;20105;-88
2023/06/04 06:01:51;;;;;;;3.63;1.70;;;;;;;19.37;34.74;100091.72;4921769;28;20053;-88
2023/06/04 06:04:18;;;;;;;4.88;1.30;;;;;;;19.28;34.83;100099.06;4926925;28;20763;-88
2023/06/04 06:06:48;;;;;;;1.42;1.10;;;;;;;19.35;35.22;100101.00;4916513;28;20051;-88
2023/06/04 06:09:18;;;;;;;2.25;1.15;;;;;;;19.34;35.41;100112.81;4924770;28;20058;-87
2023/06/04 06:11:46;;;;;;;3.53;1.45;;;;;;;19.19;34.78;100097.47;4934041;28;20185;-86
2023/06/04 06:14:13;;;;;;;1.85;1.30;;;;;;;19.10;35.32;100095.88;4926301;28;20054;-87
2023/06/04 06:16:41;;;;;;;1.58;1.20;;;;;;;19.16;35.32;100102.38;4928458;28;20352;-88
2023/06/04 06:19:08;;;;;;;2.10;1.27;;;;;;;19.03;35.77;100101.19;4926320;28;20054;-88
2023/06/04 06:21:34;;;;;;;2.47;1.17;;;;;;;19.02;35.60;100110.25;4922456;28;20108;-88
2023/06/04 06:24:02;;;;;;;1.67;1.40;;;;;;;18.86;35.33;100103.19;4936557;28;20047;-87
2023/06/04 06:26:30;;;;;;;3.90;1.27;;;;;;;18.70;35.99;100107.84;4928266;28;20501;-87
2023/06/04 06:28:59;;;;;;;5.30;1.52;;;;;;;18.86;35.83;100122.03;4920596;28;20474;-87
2023/06/04 06:31:27;;;;;;;3.70;1.30;;;;;;;18.88;36.04;100119.16;4924470;28;20461;-86
2023/06/04 06:33:55;;;;;;;2.78;1.30;;;;;;;18.98;36.00;100111.66;4942883;28;20493;-87
2023/06/04 06:36:22;;;;;;;3.10;1.38;;;;;;;19.00;36.03;100108.78;4960935;28;20054;-87
2023/06/04 06:39:13;;;;;;;2.00;1.20;;;;;;;18.76;36.52;100118.75;4921763;28;20074;-89
2023/06/04 06:41:42;;;;;;;2.75;1.40;;;;;;;18.94;36.75;100115.72;4928393;28;20047;-87
2023/06/04 06:44:13;;;;;;;1.30;1.10;;;;;;;19.08;36.25;100114.94;4918456;28;20126;-88
2023/06/04 06:46:40;;;;;;;1.58;1.20;;;;;;;19.22;36.39;100113.25;4945349;28;20042;-87
2023/06/04 06:49:08;;;;;;;3.10;1.40;;;;;;;19.08;36.45;100131.06;4970468;28;20128;-90
2023/06/04 06:55:04;;;;;;;2.42;1.20;;;;;;;19.07;36.80;100145.53;4924895;28;21082;-88
2023/06/04 06:57:31;;;;;;;5.25;1.30;;;;;;;19.12;36.62;100133.38;4945574;28;20130;-88
2023/06/04 06:59:57;;;;;;;2.40;1.27;;;;;;;19.13;36.27;100129.66;4941679;28;20043;-89
2023/06/04 07:02:26;;;;;;;4.07;1.30;;;;;;;19.20;36.60;100128.75;4944866;28;20050;-89
2023/06/04 07:04:53;;;;;;;4.75;1.40;;;;;;;19.13;36.43;100124.28;4940913;28;20059;-87
2023/06/04 07:07:20;;;;;;;3.90;1.30;;;;;;;19.14;36.70;100125.97;4946642;28;20055;-87
2023/06/04 07:09:46;;;;;;;2.25;1.20;;;;;;;18.99;36.84;100123.25;4951623;28;20505;-88
2023/06/04 07:12:13;;;;;;;2.20;1.10;;;;;;;19.14;37.20;100132.19;4951085;28;20107;-87
2023/06/04 07:14:40;;;;;;;4.32;1.55;;;;;;;19.21;36.62;100124.19;4957583;28;20070;-88
2023/06/04 07:17:07;;;;;;;2.60;1.60;;;;;;;19.16;36.62;100126.59;4942162;28;20614;-88
2023/06/04 07:19:34;;;;;;;2.28;1.20;;;;;;;19.14;36.98;100134.88;4929424;28;20125;-86
2023/06/04 07:22:01;;;;;;;2.35;1.40;;;;;;;19.19;37.17;100124.41;4939377;28;20050;-89
2023/06/04 07:24:28;;;;;;;2.53;1.50;;;;;;;19.21;36.64;100130.44;4950998;28;20096;-89
2023/06/04 07:26:55;;;;;;;3.00;1.30;;;;;;;19.23;36.65;100127.53;4948210;28;20512;-88
2023/06/04 07:29:22;;;;;;;1.40;1.30;;;;;;;19.28;36.49;100109.84;4954403;28;20459;-88
2023/06/04 07:31:49;;;;;;;2.53;1.30;;;;;;;19.33;36.75;100117.31;4948970;28;20044;-88
2023/06/04 07:34:16;;;;;;;1.55;1.30;;;;;;;19.47;36.79;100108.41;4973074;28;20050;-88
2023/06/04 07:36:43;;;;;;;1.45;1.20;;;;;;;19.42;36.92;100110.84;4968983;28;20046;-87
2023/06/04 07:39:09;;;;;;;3.92;1.40;;;;;;;19.49;37.25;100109.06;4947747;28;20054;-88
2023/06/04 07:41:36;;;;;;;3.63;1.38;;;;;;;19.50;37.12;100107.22;4964665;28;20394;-88
2023/06/04 07:44:03;;;;;;;1.45;1.17;;;;;;;19.56;37.17;100109.13;4967042;28;20130;-89
2023/06/04 07:46:30;;;;;;;2.92;1.35;;;;;;;19.60;37.52;100120.41;4947730;28;20081;-87
2023/06/04 07:48:57;;;;;;;2.75;1.20;;;;;;;19.54;37.41;100105.81;4955455;28;20054;-89
2023/06/04 07:51:25;;;;;;;4.28;1.55;;;;;;;19.54;37.18;100116.59;4925682;28;20061;-88
2023/06/04 07:53:52;;;;;;;2.58;1.30;;;;;;;19.67;37.29;100108.72;4940900;28;20047;-87
2023/06/04 07:56:19;;;;;;;2.90;1.40;;;;;;;19.65;37.09;100113.41;4926804;28;20061;-88
2023/06/04 07:58:46;;;;;;;2.75;1.55;;;;;;;19.60;37.18;100113.16;4918956;28;20160;-88
2023/06/04 08:01:13;;;;;;;4.07;1.90;;;;;;;19.64;37.82;100109.06;4941362;28;20751;-88
2023/06/04 08:03:41;;;;;;;2.25;1.40;;;;;;;19.64;37.98;100105.50;4944217;28;20505;-88
2023/06/04 08:06:10;;;;;;;3.60;1.60;;;;;;;19.69;37.63;100092.34;4929437;28;20043;-88
2023/06/04 08:08:37;;;;;;;1.58;1.30;;;;;;;19.71;37.47;100098.38;4940354;28;20336;-88
2023/06/04 08:11:04;;;;;;;2.22;1.33;;;;;;;19.80;37.70;100094.56;4945406;28;20051;-90
2023/06/04 08:13:31;;;;;;;1.75;1.30;;;;;;;19.76;37.50;100111.28;4948327;28;20057;-89
2023/06/04 08:15:58;;;;;;;2.00;1.27;;;;;;;19.77;37.45;100094.09;4945397;28;20086;-88
2023/06/04 08:18:45;;;;;;;3.00;1.60;;;;;;;19.84;38.10;100095.84;4931778;28;20377;-88
2023/06/04 08:21:26;;;;;;;4.47;1.73;;;;;;;19.80;37.69;100094.56;4926596;28;20138;-87
2023/06/04 08:24:02;;;;;;;4.53;1.58;;;;;;;19.85;38.12;100094.84;4936332;28;20620;-87
2023/06/04 08:26:50;;;;;;;4.75;1.70;;;;;;;19.88;38.07;100099.00;4947342;28;20513;-89
2023/06/04 08:29:26;;;;;;;1.77;1.40;;;;;;;19.93;38.39;100094.72;4939195;28;20057;-89
2023/06/04 08:31:54;;;;;;;3.08;1.70;;;;;;;19.97;38.00;100088.94;4939690;28;20128;-89
2023/06/04 08:34:25;;;;;;;3.55;1.50;;;;;;;19.93;37.90;100089.31;4962449;28;20042;-87
2023/06/04 08:36:51;;;;;;;3.45;1.80;;;;;;;19.96;38.07;100098.88;4942554;28;20077;-88
2023/06/04 08:39:18;;;;;;;1.88;1.30;;;;;;;20.01;37.89;100098.31;4929867;28;20050;-89
2023/06/04 08:41:54;;;;;;;3.58;1.77;;;;;;;20.01;38.39;100091.06;4954456;28;20050;-89
2023/06/04 08:44:21;;;;;;;2.60;1.40;;;;;;;20.10;38.22;100095.31;4937135;28;20506;-88
2023/06/04 08:46:52;;;;;;;3.95;1.58;;;;;;;20.12;38.54;100097.81;4945491;28;20050;-89
2023/06/04 08:49:21;;;;;;;3.25;1.75;;;;;;;20.18;38.39;100105.16;4930957;28;20051;-89
2023/06/04 08:51:50;;;;;;;3.22;2.03;;;;;;;20.26;39.02;100102.31;4943148;28;20437;-88
2023/06/04 08:54:17;;;;;;;3.63;1.73;;;;;;;20.27;38.24;100090.50;4952521;28;20047;-89
2023/06/04 08:56:46;;;;;;;3.13;1.50;;;;;;;20.32;38.47;100098.00;4934520;28;20051;-88
2023/06/04 08:59:13;;;;;;;4.05;1.90;;;;;;;20.35;38.47;100094.91;4932801;28;20051;-87
2023/06/04 09:01:44;;;;;;;2.25;1.95;;;;;;;20.39;38.33;100096.22;4941858;28;20540;-88
2023/06/04 09:04:12;;;;;;;3.22;1.88;;;;;;;20.42;38.38;100095.81;4937916;28;20057;-88
2023/06/04 09:06:41;;;;;;;4.15;1.88;;;;;;;20.50;39.03;100103.78;4914098;28;20050;-89
2023/06/04 09:09:09;;;;;;;2.05;1.80;;;;;;;20.56;38.46;100115.72;4947650;28;20046;-87
2023/06/04 09:11:49;;;;;;;2.63;1.50;;;;;;;20.51;37.84;100100.06;4927523;28;21063;-88
2023/06/04 09:14:18;;;;;;;3.30;1.80;;;;;;;20.63;38.45;100100.38;4938098;28;20057;-89
2023/06/04 09:16:50;;;;;;;4.57;1.70;;;;;;;20.64;38.16;100103.94;4947299;28;20052;-88
2023/06/04 09:19:18;;;;;;;1.80;1.67;;;;;;;20.69;38.68;100104.19;4947605;28;20106;-89
2023/06/04 09:21:47;;;;;;;2.28;1.58;;;;;;;20.71;38.60;100102.09;4953947;28;20117;-89
2023/06/04 09:24:14;;;;;;;2.35;1.70;;;;;;;20.76;38.58;100113.16;4929816;28;20122;-88
2023/06/04 09:26:41;;;;;;;4.53;2.25;;;;;;;20.74;38.60;100107.97;4942083;28;20102;-87
2023/06/04 09:29:08;;;;;;;3.60;2.53;;;;;;;20.79;37.79;100104.69;4934860;28;20039;-88
2023/06/04 09:31:37;;;;;;;2.28;1.80;;;;;;;20.85;38.13;100100.38;4926855;28;20043;-89
2023/06/04 09:34:04;;;;;;;2.72;1.70;;;;;;;20.86;37.57;100099.31;4949531;28;20390;-88
2023/06/04 09:36:31;;;;;;;3.20;1.60;;;;;;;20.90;37.79;100109.53;4941372;28;20047;-89
2023/06/04 09:38:58;;;;;;;2.85;2.03;;;;;;;20.95;37.13;100103.56;4917956;28;20448;-89
2023/06/04 09:41:25;;;;;;;2.92;1.73;;;;;;;20.99;36.33;100100.28;4966631;28;20054;-88
2023/06/04 09:44:03;;;;;;;3.15;1.52;;;;;;;20.98;37.03;100093.19;4934210;28;20054;-89
2023/06/04 09:46:30;;;;;;;2.72;1.65;;;;;;;21.03;36.94;100100.69;4947372;28;20079;-89
2023/06/04 09:49:02;;;;;;;2.83;1.55;;;;;;;21.02;36.05;100093.63;4942234;28;20046;-88
2023/06/04 09:51:30;;;;;;;4.32;1.80;;;;;;;21.06;36.52;100104.88;4954690;28;20395;-90
2023/06/04 09:54:01;;;;;;;2.67;1.60;;;;;;;21.07;36.75;100098.44;4924585;28;20051;-89
2023/06/04 09:56:28;;;;;;;1.98;1.75;;;;;;;21.06;36.39;100084.09;4940686;28;20044;-88
2023/06/04 09:59:00;;;;;;;4.57;1.80;;;;;;;21.12;36.27;100101.41;4956413;28;20054;-88
2023/06/04 10:01:28;;;;;;;2.07;1.80;;;;;;;21.19;36.06;100097.69;4945102;28;20051;-88
2023/06/04 10:03:58;;;;;;;2.90;1.40;;;;;;;21.25;35.51;100105.00;4946989;28;20055;-87
2023/06/04 10:06:25;;;;;;;2.85;1.60;;;;;;;21.19;35.36;100094.16;4940610;28;20077;-89
2023/06/04 10:08:53;;;;;;;3.25;1.60;;;;;;;21.18;35.41;100100.59;4930069;28;20059;-89
2023/06/04 10:11:26;;;;;;;3.33;1.30;;;;;;;21.22;35.25;100099.16;4927575;28;20442;-89
2023/06/04 10:14:00;;;;;;;2.47;1.50;;;;;;;21.18;34.42;100100.59;4942209;28;20102;-89
2023/06/04 10:16:28;;;;;;;1.98;1.80;;;;;;;21.21;34.75;100105.59;4950377;28;20050;-87
2023/06/04 10:19:01;;;;;;;2.85;1.73;;;;;;;21.23;34.83;100088.16;4956425;28;20050;-88
2023/06/04 10:21:28;;;;;;;3.53;1.40;;;;;;;21.27;35.02;100087.75;4964084;28;20063;-89
2023/06/04 10:23:55;;;;;;;3.28;2.08;;;;;;;21.32;35.44;100096.09;4952229;28;20266;-87
2023/06/04 10:26:22;;;;;;;2.55;1.67;;;;;;;21.39;35.29;100103.22;4947739;28;20543;-87
2023/06/04 10:28:50;;;;;;;2.90;1.77;;;;;;;21.38;34.77;100115.06;4975704;28;20497;-88
2023/06/04 10:31:17;;;;;;;2.13;1.50;;;;;;;21.39;34.77;100084.31;4952557;28;20093;-89
2023/06/04 10:33:44;;;;;;;1.65;1.33;;;;;;;21.42;34.15;100092.03;4946104;28;20039;-88
2023/06/04 10:36:19;;;;;;;2.42;1.60;;;;;;;21.43;32.39;100080.19;4947236;28;20055;-88
2023/06/04 10:38:53;;;;;;;4.97;1.90;;;;;;;21.40;32.34;100091.41;4952358;28;20104;-87
2023/06/04 10:41:25;;;;;;;5.63;1.65;;;;;;;21.45;33.42;100088.94;4961573;28;20065;-89
2023/06/04 10:44:00;;;;;;;2.83;1.42;;;;;;;21.42;32.73;100085.78;4936180;28;20049;-89
2023/06/04 10:46:38;;;;;;;2.55;1.23;;;;;;;21.39;33.99;100078.91;4945459;28;20097;-88
2023/06/04 10:49:05;;;;;;;3.15;1.50;;;;;;;21.54;33.87;100088.75;4937330;28;23102;-89
2023/06/04 10:51:33;;;;;;;1.35;1.25;;;;;;;21.57;33.41;100082.94;4954752;28;20050;-88
2023/06/04 10:54:01;;;;;;;3.53;1.70;;;;;;;21.57;32.74;100077.53;4934640;28;20059;-90
2023/06/04 10:56:31;;;;;;;2.92;1.50;;;;;;;21.61;33.71;100078.81;4941320;28;20506;-87
2023/06/04 10:58:59;;;;;;;4.70;1.55;;;;;;;21.61;32.50;100087.75;4929632;28;20093;-88
2023/06/04 11:01:31;;;;;;;2.97;1.63;;;;;;;21.54;32.18;100076.06;4937660;28;20050;-88
2023/06/04 11:03:58;;;;;;;2.97;1.93;;;;;;;21.58;32.88;100082.75;4938052;28;20061;-87
2023/06/04 11:06:28;;;;;;;2.50;1.40;;;;;;;21.63;33.03;100092.97;4943908;28;20138;-88
2023/06/04 11:09:05;;;;;;;2.85;1.52;;;;;;;21.57;31.65;100097.28;4933696;28;20038;-88
2023/06/04 11:11:32;;;;;;;3.67;1.80;;;;;;;21.65;31.75;100083.63;4951548;28;20073;-89
2023/06/04 11:14:15;;;;;;;4.28;1.30;;;;;;;21.63;31.63;100085.69;4945194;28;20105;-88
2023/06/04 11:16:42;;;;;;;3.13;1.58;;;;;;;21.69;32.41;100073.22;4961130;28;20067;-89
2023/06/04 11:19:09;;;;;;;2.20;1.33;;;;;;;21.69;32.28;100089.44;4932539;28;20430;-88
2023/06/04 11:21:37;;;;;;;2.55;1.60;;;;;;;21.73;31.53;100076.34;4934000;28;20043;-88
2023/06/04 11:24:05;;;;;;;4.13;1.50;;;;;;;21.73;31.80;100073.63;4979008;28;20042;-88
2023/06/04 11:26:36;;;;;;;10.13;2.75;;;;;;;21.74;32.17;100064.50;4928804;28;20468;-89
2023/06/04 11:29:08;;;;;;;2.38;1.83;;;;;;;21.75;32.20;100076.97;4938438;28;20051;-89
2023/06/04 11:31:42;;;;;;;5.00;1.77;;;;;;;21.76;30.89;100065.16;4942677;28;20506;-90
2023/06/04 11:34:11;;;;;;;1.55;1.33;;;;;;;21.83;31.76;100069.53;4938080;28;20391;-89
2023/06/04 11:36:38;;;;;;;3.20;1.80;;;;;;;21.82;30.47;100064.31;4963431;28;20057;-89
2023/06/04 11:39:08;;;;;;;1.60;1.50;;;;;;;21.84;31.16;100060.38;4935053;28;20061;-89
2023/06/04 11:41:35;;;;;;;2.30;1.52;;;;;;;21.87;30.86;100056.44;4945432;28;20099;-87